UTAA

Ashgabat Airport

Ashgabat, Turkmenistan
TAF AMD UTAA 182127Z 1821/1918 10014KT 1500 -RASN BR OVC007 SCT020CB 530009 TEMPO 1821/1905 05014KT 0300 FZFG VV001 BECMG 1905/1906 12018KT 3000 BR OVC007
Issued Valid From Valid To
Dec-18 @ 21:27 UTC
(2 hours ago)
Dec-18 @ 21:00 UTC
(3 hours ago)
Dec-19 @ 18:00 UTC
(in 18 hours)
Dec-18 @ 21:00 to Dec-19 @ 05:00
TAF AMD UTAA 182127Z 1821/1918 10014KT 1500 -RASN BR OVC007 SCT020CB 530009
Wind Visibility Clouds Conditions Turbulence
100° at 14 knots 1,497 meters
  • Overcast at 700' AGL
  • Scattered at 2,000' AGL
  • Light Rain
  • Light Snow
  • Mist
Frequent moderate clear air turbulence expected at the surface extending to 9,000' AGL
Temporary Dec-18 @ 21:00 to Dec-19 @ 05:00
TEMPO 1821/1905 05014KT 0300 FZFG VV001
Wind Visibility Clouds Conditions
50° at 14 knots 306 meters
  • Vertical visibility at 100' AGL
  • Freezing
  • Fog
Becoming Dec-19 @ 05:00 to Dec-19 @ 18:00
BECMG 1905/1906 12018KT 3000 BR OVC007
Wind Visibility Clouds Conditions
120° at 18 knots 2,993 meters
  • Overcast at 700' AGL
  • Mist
TAF AMD UTAA 182127Z 1821/1918 10014KT 1500 -RASN BR OVC007 SCT020CB 530009 TEMPO 1821/1905 05014KT 0300 FZFG VV001 BECMG 1905/1906 12018KT 3000 BR OVC007
Issued Dec-18 @ 21:27 UTC
(2 hours ago)
Valid From Dec-18 @ 21:00 UTC
(3 hours ago)
Valid To Dec-19 @ 18:00 UTC
(in 18 hours)
Dec-18 @ 21:00 - Dec-19 @ 05:00
Wind Visibility
100° at 14 knots 1,497 meters
Clouds
  • Overcast at 700' AGL
  • Scattered at 2,000' AGL
Conditions
  • Light Rain
  • Light Snow
  • Mist
Temporary Dec-18 @ 21:00 - Dec-19 @ 05:00
Wind Visibility
50° at 14 knots 306 meters
Clouds
  • Vertical visibility at 100' AGL
Conditions
  • Freezing
  • Fog
Becoming Dec-19 @ 05:00 - Dec-19 @ 18:00
Wind Visibility
120° at 18 knots 2,993 meters
Clouds
  • Overcast at 700' AGL
Conditions
  • Mist